sensor_id;sensor_type;location;lat;lon;timestamp;P1;durP1;ratioP1;P2;durP2;ratioP2
53961;SDS011;39868;53.398;6.564;2022-10-16T00:01:26;2.17;;;1.85;;
53961;SDS011;39868;53.398;6.564;2022-10-16T00:03:56;2.80;;;1.70;;
53961;SDS011;39868;53.398;6.564;2022-10-16T00:06:25;4.78;;;2.45;;
53961;SDS011;39868;53.398;6.564;2022-10-16T00:08:53;2.40;;;1.83;;
53961;SDS011;39868;53.398;6.564;2022-10-16T00:11:26;5.03;;;2.20;;
53961;SDS011;39868;53.398;6.564;2022-10-16T00:13:57;4.15;;;2.13;;
53961;SDS011;39868;53.398;6.564;2022-10-16T00:16:26;3.17;;;1.90;;
53961;SDS011;39868;53.398;6.564;2022-10-16T00:18:55;3.08;;;1.90;;
53961;SDS011;39868;53.398;6.564;2022-10-16T00:21:24;14.35;;;2.30;;
53961;SDS011;39868;53.398;6.564;2022-10-16T00:23:54;2.80;;;2.05;;
53961;SDS011;39868;53.398;6.564;2022-10-16T00:26:23;1.80;;;1.70;;
53961;SDS011;39868;53.398;6.564;2022-10-16T00:28:51;3.30;;;1.83;;
53961;SDS011;39868;53.398;6.564;2022-10-16T00:31:20;6.30;;;2.03;;
53961;SDS011;39868;53.398;6.564;2022-10-16T00:33:48;2.47;;;1.70;;
53961;SDS011;39868;53.398;6.564;2022-10-16T00:36:17;2.58;;;2.15;;
53961;SDS011;39868;53.398;6.564;2022-10-16T00:38:46;5.20;;;2.10;;
53961;SDS011;39868;53.398;6.564;2022-10-16T00:41:16;4.50;;;2.10;;
53961;SDS011;39868;53.398;6.564;2022-10-16T00:43:45;3.08;;;1.80;;
53961;SDS011;39868;53.398;6.564;2022-10-16T00:46:22;2.60;;;2.03;;
53961;SDS011;39868;53.398;6.564;2022-10-16T00:48:57;4.00;;;1.90;;
53961;SDS011;39868;53.398;6.564;2022-10-16T00:51:32;3.20;;;2.45;;
53961;SDS011;39868;53.398;6.564;2022-10-16T00:54:15;6.15;;;2.33;;
53961;SDS011;39868;53.398;6.564;2022-10-16T00:56:47;3.70;;;1.77;;
53961;SDS011;39868;53.398;6.564;2022-10-16T00:59:26;2.05;;;1.92;;
53961;SDS011;39868;53.398;6.564;2022-10-16T01:01:56;3.92;;;2.30;;
53961;SDS011;39868;53.398;6.564;2022-10-16T01:04:25;6.03;;;2.25;;
53961;SDS011;39868;53.398;6.564;2022-10-16T01:18:17;2.38;;;1.60;;
53961;SDS011;39868;53.398;6.564;2022-10-16T01:23:40;2.92;;;1.92;;
53961;SDS011;39868;53.398;6.564;2022-10-16T01:32:40;4.00;;;1.50;;
53961;SDS011;39868;53.398;6.564;2022-10-16T01:36:31;3.00;;;1.80;;
53961;SDS011;39868;53.398;6.564;2022-10-16T01:38:34;2.63;;;1.63;;
53961;SDS011;39868;53.398;6.564;2022-10-16T01:41:09;2.15;;;1.70;;
53961;SDS011;39868;53.398;6.564;2022-10-16T01:46:39;2.63;;;2.03;;
53961;SDS011;39868;53.398;6.564;2022-10-16T01:49:08;4.38;;;2.10;;
53961;SDS011;39868;53.398;6.564;2022-10-16T01:51:38;2.35;;;1.77;;
53961;SDS011;39868;53.398;6.564;2022-10-16T01:54:08;3.83;;;1.92;;
53961;SDS011;39868;53.398;6.564;2022-10-16T01:56:36;2.83;;;1.90;;
53961;SDS011;39868;53.398;6.564;2022-10-16T01:59:06;3.25;;;1.80;;
53961;SDS011;39868;53.398;6.564;2022-10-16T02:01:38;2.05;;;1.63;;
53961;SDS011;39868;53.398;6.564;2022-10-16T02:04:12;2.08;;;1.80;;
53961;SDS011;39868;53.398;6.564;2022-10-16T02:06:44;2.10;;;1.60;;
53961;SDS011;39868;53.398;6.564;2022-10-16T02:09:11;2.17;;;1.65;;
53961;SDS011;39868;53.398;6.564;2022-10-16T02:11:39;4.80;;;1.95;;
53961;SDS011;39868;53.398;6.564;2022-10-16T02:14:07;2.22;;;1.70;;
53961;SDS011;39868;53.398;6.564;2022-10-16T02:16:36;4.53;;;1.70;;
53961;SDS011;39868;53.398;6.564;2022-10-16T02:19:10;2.17;;;1.88;;
53961;SDS011;39868;53.398;6.564;2022-10-16T02:21:44;2.00;;;1.80;;
53961;SDS011;39868;53.398;6.564;2022-10-16T02:27:33;2.35;;;1.85;;
53961;SDS011;39868;53.398;6.564;2022-10-16T02:30:29;2.22;;;2.03;;
53961;SDS011;39868;53.398;6.564;2022-10-16T02:33:03;1.80;;;1.70;;
53961;SDS011;39868;53.398;6.564;2022-10-16T02:35:37;2.25;;;1.88;;
53961;SDS011;39868;53.398;6.564;2022-10-16T02:38:06;3.30;;;1.88;;
53961;SDS011;39868;53.398;6.564;2022-10-16T02:40:39;1.88;;;1.77;;
53961;SDS011;39868;53.398;6.564;2022-10-16T02:43:07;2.03;;;1.90;;
53961;SDS011;39868;53.398;6.564;2022-10-16T02:45:36;5.20;;;1.90;;
53961;SDS011;39868;53.398;6.564;2022-10-16T02:48:04;2.72;;;1.88;;
53961;SDS011;39868;53.398;6.564;2022-10-16T02:50:32;2.28;;;2.08;;
53961;SDS011;39868;53.398;6.564;2022-10-16T02:52:59;3.58;;;2.03;;
53961;SDS011;39868;53.398;6.564;2022-10-16T02:55:27;2.30;;;2.10;;
53961;SDS011;39868;53.398;6.564;2022-10-16T02:57:55;2.08;;;1.90;;
53961;SDS011;39868;53.398;6.564;2022-10-16T03:00:22;2.53;;;2.08;;
53961;SDS011;39868;53.398;6.564;2022-10-16T03:02:50;2.38;;;2.17;;
53961;SDS011;39868;53.398;6.564;2022-10-16T03:05:17;2.30;;;1.98;;
53961;SDS011;39868;53.398;6.564;2022-10-16T03:07:45;2.05;;;1.85;;
53961;SDS011;39868;53.398;6.564;2022-10-16T03:10:12;2.22;;;2.03;;
53961;SDS011;39868;53.398;6.564;2022-10-16T03:12:40;2.10;;;1.90;;
53961;SDS011;39868;53.398;6.564;2022-10-16T03:15:08;3.08;;;2.15;;
53961;SDS011;39868;53.398;6.564;2022-10-16T03:17:35;2.33;;;2.00;;
53961;SDS011;39868;53.398;6.564;2022-10-16T03:20:03;2.72;;;2.00;;
53961;SDS011;39868;53.398;6.564;2022-10-16T03:22:31;3.17;;;2.15;;
53961;SDS011;39868;53.398;6.564;2022-10-16T03:24:59;2.90;;;1.73;;
53961;SDS011;39868;53.398;6.564;2022-10-16T03:27:26;4.00;;;2.00;;
53961;SDS011;39868;53.398;6.564;2022-10-16T03:29:54;3.45;;;2.20;;
53961;SDS011;39868;53.398;6.564;2022-10-16T03:32:21;2.13;;;1.92;;
53961;SDS011;39868;53.398;6.564;2022-10-16T03:34:51;1.98;;;1.75;;
53961;SDS011;39868;53.398;6.564;2022-10-16T03:37:21;2.40;;;1.85;;
53961;SDS011;39868;53.398;6.564;2022-10-16T03:39:48;2.15;;;1.85;;
53961;SDS011;39868;53.398;6.564;2022-10-16T03:42:16;3.25;;;2.05;;
53961;SDS011;39868;53.398;6.564;2022-10-16T03:44:43;3.20;;;1.98;;
53961;SDS011;39868;53.398;6.564;2022-10-16T03:47:11;2.20;;;1.98;;
53961;SDS011;39868;53.398;6.564;2022-10-16T03:49:38;3.67;;;2.25;;
53961;SDS011;39868;53.398;6.564;2022-10-16T03:52:06;2.00;;;1.80;;
53961;SDS011;39868;53.398;6.564;2022-10-16T03:54:34;2.67;;;1.80;;
53961;SDS011;39868;53.398;6.564;2022-10-16T03:57:02;2.08;;;1.98;;
53961;SDS011;39868;53.398;6.564;2022-10-16T03:59:29;2.53;;;2.15;;
53961;SDS011;39868;53.398;6.564;2022-10-16T04:01:58;2.97;;;2.08;;
53961;SDS011;39868;53.398;6.564;2022-10-16T04:04:25;2.67;;;2.00;;
53961;SDS011;39868;53.398;6.564;2022-10-16T04:06:53;3.85;;;2.00;;
53961;SDS011;39868;53.398;6.564;2022-10-16T04:09:20;2.20;;;1.90;;
53961;SDS011;39868;53.398;6.564;2022-10-16T04:11:47;4.07;;;1.90;;
53961;SDS011;39868;53.398;6.564;2022-10-16T04:14:15;1.70;;;1.60;;
53961;SDS011;39868;53.398;6.564;2022-10-16T04:16:43;1.60;;;1.50;;
53961;SDS011;39868;53.398;6.564;2022-10-16T04:19:10;2.72;;;1.80;;
53961;SDS011;39868;53.398;6.564;2022-10-16T04:21:38;2.50;;;1.90;;
53961;SDS011;39868;53.398;6.564;2022-10-16T04:24:06;2.22;;;2.05;;
53961;SDS011;39868;53.398;6.564;2022-10-16T04:26:33;2.85;;;1.90;;
53961;SDS011;39868;53.398;6.564;2022-10-16T04:29:01;2.60;;;2.00;;
53961;SDS011;39868;53.398;6.564;2022-10-16T04:31:28;2.65;;;1.95;;
53961;SDS011;39868;53.398;6.564;2022-10-16T04:33:56;2.17;;;2.03;;
53961;SDS011;39868;53.398;6.564;2022-10-16T04:36:23;2.22;;;2.03;;
53961;SDS011;39868;53.398;6.564;2022-10-16T04:38:54;3.00;;;2.20;;
53961;SDS011;39868;53.398;6.564;2022-10-16T04:41:22;4.38;;;2.60;;
53961;SDS011;39868;53.398;6.564;2022-10-16T04:43:49;2.25;;;2.05;;
53961;SDS011;39868;53.398;6.564;2022-10-16T04:46:17;3.22;;;2.10;;
53961;SDS011;39868;53.398;6.564;2022-10-16T04:48:44;2.40;;;2.20;;
53961;SDS011;39868;53.398;6.564;2022-10-16T04:51:13;2.45;;;2.20;;
53961;SDS011;39868;53.398;6.564;2022-10-16T04:53:40;2.83;;;2.53;;
53961;SDS011;39868;53.398;6.564;2022-10-16T04:56:08;2.88;;;2.00;;
53961;SDS011;39868;53.398;6.564;2022-10-16T04:58:36;2.60;;;2.22;;
53961;SDS011;39868;53.398;6.564;2022-10-16T05:01:03;2.70;;;2.17;;
53961;SDS011;39868;53.398;6.564;2022-10-16T05:03:31;2.35;;;1.90;;
53961;SDS011;39868;53.398;6.564;2022-10-16T05:05:58;2.20;;;2.10;;
53961;SDS011;39868;53.398;6.564;2022-10-16T05:08:26;2.42;;;2.22;;
53961;SDS011;39868;53.398;6.564;2022-10-16T05:10:53;3.28;;;2.58;;
53961;SDS011;39868;53.398;6.564;2022-10-16T05:13:21;3.05;;;2.08;;
53961;SDS011;39868;53.398;6.564;2022-10-16T05:15:50;2.38;;;2.00;;
53961;SDS011;39868;53.398;6.564;2022-10-16T05:18:17;2.08;;;1.98;;
53961;SDS011;39868;53.398;6.564;2022-10-16T05:20:44;3.63;;;2.10;;
53961;SDS011;39868;53.398;6.564;2022-10-16T05:23:12;2.80;;;2.60;;
53961;SDS011;39868;53.398;6.564;2022-10-16T05:25:40;2.38;;;2.17;;
53961;SDS011;39868;53.398;6.564;2022-10-16T05:28:07;2.83;;;2.17;;
53961;SDS011;39868;53.398;6.564;2022-10-16T05:30:36;3.05;;;2.28;;
53961;SDS011;39868;53.398;6.564;2022-10-16T05:33:05;2.35;;;2.15;;
53961;SDS011;39868;53.398;6.564;2022-10-16T05:35:32;4.70;;;2.40;;
53961;SDS011;39868;53.398;6.564;2022-10-16T05:38:01;2.30;;;2.10;;
53961;SDS011;39868;53.398;6.564;2022-10-16T05:40:28;3.40;;;2.10;;
53961;SDS011;39868;53.398;6.564;2022-10-16T05:42:56;4.00;;;2.40;;
53961;SDS011;39868;53.398;6.564;2022-10-16T05:45:23;3.05;;;2.42;;
53961;SDS011;39868;53.398;6.564;2022-10-16T05:47:51;4.10;;;2.00;;
53961;SDS011;39868;53.398;6.564;2022-10-16T05:50:18;3.00;;;2.10;;
53961;SDS011;39868;53.398;6.564;2022-10-16T05:52:46;3.05;;;2.17;;
53961;SDS011;39868;53.398;6.564;2022-10-16T05:55:13;3.08;;;2.17;;
53961;SDS011;39868;53.398;6.564;2022-10-16T05:57:42;2.35;;;2.15;;
53961;SDS011;39868;53.398;6.564;2022-10-16T06:00:10;2.50;;;2.30;;
53961;SDS011;39868;53.398;6.564;2022-10-16T06:02:40;2.70;;;2.50;;
53961;SDS011;39868;53.398;6.564;2022-10-16T06:05:08;2.60;;;2.40;;
53961;SDS011;39868;53.398;6.564;2022-10-16T06:07:35;2.85;;;2.53;;
53961;SDS011;39868;53.398;6.564;2022-10-16T06:10:03;2.90;;;2.33;;
53961;SDS011;39868;53.398;6.564;2022-10-16T06:12:31;3.95;;;2.47;;
53961;SDS011;39868;53.398;6.564;2022-10-16T06:14:59;4.10;;;2.40;;
53961;SDS011;39868;53.398;6.564;2022-10-16T06:17:26;2.90;;;2.55;;
53961;SDS011;39868;53.398;6.564;2022-10-16T06:19:54;3.15;;;2.30;;
53961;SDS011;39868;53.398;6.564;2022-10-16T06:22:22;3.58;;;2.70;;
53961;SDS011;39868;53.398;6.564;2022-10-16T06:24:49;2.90;;;2.58;;
53961;SDS011;39868;53.398;6.564;2022-10-16T06:27:17;3.17;;;2.88;;
53961;SDS011;39868;53.398;6.564;2022-10-16T06:29:44;3.10;;;2.72;;
53961;SDS011;39868;53.398;6.564;2022-10-16T06:32:12;4.80;;;2.92;;
53961;SDS011;39868;53.398;6.564;2022-10-16T06:34:39;3.30;;;3.00;;
53961;SDS011;39868;53.398;6.564;2022-10-16T06:37:15;3.05;;;2.75;;
53961;SDS011;39868;53.398;6.564;2022-10-16T06:39:51;3.33;;;2.92;;
53961;SDS011;39868;53.398;6.564;2022-10-16T06:42:21;3.88;;;2.97;;
53961;SDS011;39868;53.398;6.564;2022-10-16T06:44:49;3.42;;;3.10;;
53961;SDS011;39868;53.398;6.564;2022-10-16T06:47:17;4.93;;;3.00;;
53961;SDS011;39868;53.398;6.564;2022-10-16T06:49:44;4.38;;;3.08;;
53961;SDS011;39868;53.398;6.564;2022-10-16T06:52:18;4.25;;;2.90;;
53961;SDS011;39868;53.398;6.564;2022-10-16T06:54:46;4.20;;;3.00;;
53961;SDS011;39868;53.398;6.564;2022-10-16T06:57:14;4.75;;;2.92;;
53961;SDS011;39868;53.398;6.564;2022-10-16T06:59:41;3.10;;;2.80;;
53961;SDS011;39868;53.398;6.564;2022-10-16T07:02:12;5.65;;;2.92;;
53961;SDS011;39868;53.398;6.564;2022-10-16T07:04:42;3.45;;;3.15;;
53961;SDS011;39868;53.398;6.564;2022-10-16T07:07:11;4.88;;;2.75;;
53961;SDS011;39868;53.398;6.564;2022-10-16T07:09:44;5.05;;;3.22;;
53961;SDS011;39868;53.398;6.564;2022-10-16T07:12:14;4.60;;;3.00;;
53961;SDS011;39868;53.398;6.564;2022-10-16T07:14:45;3.63;;;2.88;;
53961;SDS011;39868;53.398;6.564;2022-10-16T07:17:12;5.53;;;3.33;;
53961;SDS011;39868;53.398;6.564;2022-10-16T07:19:43;3.17;;;2.97;;
53961;SDS011;39868;53.398;6.564;2022-10-16T07:22:11;3.55;;;3.00;;
53961;SDS011;39868;53.398;6.564;2022-10-16T07:24:41;3.40;;;2.88;;
53961;SDS011;39868;53.398;6.564;2022-10-16T07:27:14;3.22;;;2.97;;
53961;SDS011;39868;53.398;6.564;2022-10-16T07:29:43;3.10;;;2.90;;
53961;SDS011;39868;53.398;6.564;2022-10-16T07:32:10;2.80;;;2.60;;
53961;SDS011;39868;53.398;6.564;2022-10-16T07:34:38;4.50;;;2.88;;
53961;SDS011;39868;53.398;6.564;2022-10-16T07:37:06;4.05;;;3.15;;
53961;SDS011;39868;53.398;6.564;2022-10-16T07:39:33;4.72;;;3.00;;
53961;SDS011;39868;53.398;6.564;2022-10-16T07:42:01;3.85;;;3.08;;
53961;SDS011;39868;53.398;6.564;2022-10-16T07:44:28;3.78;;;2.83;;
53961;SDS011;39868;53.398;6.564;2022-10-16T07:46:56;5.03;;;3.25;;
53961;SDS011;39868;53.398;6.564;2022-10-16T07:49:24;2.90;;;2.63;;
53961;SDS011;39868;53.398;6.564;2022-10-16T07:51:52;3.67;;;2.70;;
53961;SDS011;39868;53.398;6.564;2022-10-16T07:54:19;3.05;;;2.75;;
53961;SDS011;39868;53.398;6.564;2022-10-16T07:56:47;3.05;;;2.53;;
53961;SDS011;39868;53.398;6.564;2022-10-16T07:59:15;3.55;;;2.60;;
53961;SDS011;39868;53.398;6.564;2022-10-16T08:01:42;3.33;;;2.45;;
53961;SDS011;39868;53.398;6.564;2022-10-16T08:04:10;3.13;;;2.53;;
53961;SDS011;39868;53.398;6.564;2022-10-16T08:06:39;2.70;;;2.50;;
53961;SDS011;39868;53.398;6.564;2022-10-16T08:09:07;4.00;;;2.80;;
53961;SDS011;39868;53.398;6.564;2022-10-16T08:11:35;5.22;;;2.92;;
53961;SDS011;39868;53.398;6.564;2022-10-16T08:14:03;2.90;;;2.63;;
53961;SDS011;39868;53.398;6.564;2022-10-16T08:16:30;3.17;;;2.92;;
53961;SDS011;39868;53.398;6.564;2022-10-16T08:18:58;2.90;;;2.55;;
53961;SDS011;39868;53.398;6.564;2022-10-16T08:21:25;2.95;;;2.50;;
53961;SDS011;39868;53.398;6.564;2022-10-16T08:23:53;3.10;;;2.65;;
53961;SDS011;39868;53.398;6.564;2022-10-16T08:26:24;2.97;;;2.78;;
53961;SDS011;39868;53.398;6.564;2022-10-16T08:28:53;3.33;;;2.83;;
53961;SDS011;39868;53.398;6.564;2022-10-16T08:31:22;3.20;;;3.00;;
53961;SDS011;39868;53.398;6.564;2022-10-16T08:33:50;5.68;;;3.10;;
53961;SDS011;39868;53.398;6.564;2022-10-16T08:36:19;3.10;;;2.80;;
53961;SDS011;39868;53.398;6.564;2022-10-16T08:38:47;3.13;;;2.78;;
53961;SDS011;39868;53.398;6.564;2022-10-16T08:52:22;2.95;;;2.75;;
53961;SDS011;39868;53.398;6.564;2022-10-16T08:54:55;7.85;;;3.50;;
53961;SDS011;39868;53.398;6.564;2022-10-16T08:57:24;3.53;;;2.90;;
53961;SDS011;39868;53.398;6.564;2022-10-16T08:59:53;5.05;;;2.67;;
53961;SDS011;39868;53.398;6.564;2022-10-16T09:02:30;2.80;;;2.60;;
53961;SDS011;39868;53.398;6.564;2022-10-16T09:10:38;6.03;;;2.97;;
53961;SDS011;39868;53.398;6.564;2022-10-16T09:13:36;3.25;;;2.70;;
53961;SDS011;39868;53.398;6.564;2022-10-16T09:16:33;3.67;;;2.63;;
53961;SDS011;39868;53.398;6.564;2022-10-16T09:19:09;2.70;;;2.50;;
53961;SDS011;39868;53.398;6.564;2022-10-16T09:21:50;7.75;;;2.83;;
53961;SDS011;39868;53.398;6.564;2022-10-16T09:24:20;4.90;;;2.35;;
53961;SDS011;39868;53.398;6.564;2022-10-16T09:26:53;2.72;;;2.53;;
53961;SDS011;39868;53.398;6.564;2022-10-16T09:29:21;4.32;;;2.92;;
53961;SDS011;39868;53.398;6.564;2022-10-16T09:31:52;9.60;;;2.72;;
53961;SDS011;39868;53.398;6.564;2022-10-16T09:37:03;5.07;;;3.05;;
53961;SDS011;39868;53.398;6.564;2022-10-16T09:39:50;4.78;;;3.15;;
53961;SDS011;39868;53.398;6.564;2022-10-16T09:44:54;4.60;;;2.78;;
53961;SDS011;39868;53.398;6.564;2022-10-16T09:47:25;3.55;;;2.92;;
53961;SDS011;39868;53.398;6.564;2022-10-16T09:49:57;5.43;;;2.95;;
53961;SDS011;39868;53.398;6.564;2022-10-16T09:52:28;7.68;;;3.40;;
53961;SDS011;39868;53.398;6.564;2022-10-16T09:57:25;6.20;;;3.40;;
53961;SDS011;39868;53.398;6.564;2022-10-16T09:59:54;4.68;;;3.15;;
53961;SDS011;39868;53.398;6.564;2022-10-16T10:02:29;3.97;;;2.58;;
53961;SDS011;39868;53.398;6.564;2022-10-16T10:05:02;4.68;;;3.30;;
53961;SDS011;39868;53.398;6.564;2022-10-16T10:07:42;4.30;;;2.80;;
53961;SDS011;39868;53.398;6.564;2022-10-16T10:10:25;7.18;;;3.25;;
53961;SDS011;39868;53.398;6.564;2022-10-16T10:12:55;4.88;;;2.83;;
53961;SDS011;39868;53.398;6.564;2022-10-16T10:15:23;8.57;;;3.15;;
53961;SDS011;39868;53.398;6.564;2022-10-16T10:17:59;7.75;;;3.10;;
53961;SDS011;39868;53.398;6.564;2022-10-16T10:20:30;5.47;;;2.80;;
53961;SDS011;39868;53.398;6.564;2022-10-16T10:23:01;8.23;;;3.10;;
53961;SDS011;39868;53.398;6.564;2022-10-16T10:25:56;7.75;;;3.30;;
53961;SDS011;39868;53.398;6.564;2022-10-16T10:28:35;6.65;;;2.92;;
53961;SDS011;39868;53.398;6.564;2022-10-16T10:40:04;5.88;;;3.30;;
53961;SDS011;39868;53.398;6.564;2022-10-16T10:42:37;3.97;;;3.10;;
53961;SDS011;39868;53.398;6.564;2022-10-16T10:50:39;5.45;;;3.85;;
53961;SDS011;39868;53.398;6.564;2022-10-16T10:53:31;8.93;;;3.03;;
53961;SDS011;39868;53.398;6.564;2022-10-16T10:56:07;5.07;;;3.08;;
53961;SDS011;39868;53.398;6.564;2022-10-16T11:02:06;6.45;;;2.90;;
53961;SDS011;39868;53.398;6.564;2022-10-16T11:07:10;3.85;;;2.10;;
53961;SDS011;39868;53.398;6.564;2022-10-16T11:10:08;6.95;;;2.78;;
53961;SDS011;39868;53.398;6.564;2022-10-16T11:12:47;5.05;;;2.60;;
53961;SDS011;39868;53.398;6.564;2022-10-16T11:15:30;6.55;;;2.70;;
53961;SDS011;39868;53.398;6.564;2022-10-16T11:18:06;9.45;;;2.90;;
53961;SDS011;39868;53.398;6.564;2022-10-16T11:20:38;3.88;;;2.90;;
53961;SDS011;39868;53.398;6.564;2022-10-16T11:25:59;7.85;;;3.58;;
53961;SDS011;39868;53.398;6.564;2022-10-16T11:34:17;6.63;;;2.83;;
53961;SDS011;39868;53.398;6.564;2022-10-16T11:37:25;7.93;;;2.90;;
53961;SDS011;39868;53.398;6.564;2022-10-16T11:40:14;8.20;;;3.05;;
53961;SDS011;39868;53.398;6.564;2022-10-16T11:43:00;6.05;;;2.88;;
53961;SDS011;39868;53.398;6.564;2022-10-16T11:46:12;3.83;;;2.80;;
53961;SDS011;39868;53.398;6.564;2022-10-16T11:51:35;6.45;;;2.50;;
53961;SDS011;39868;53.398;6.564;2022-10-16T11:54:28;8.40;;;3.00;;
53961;SDS011;39868;53.398;6.564;2022-10-16T11:57:16;6.72;;;2.78;;
53961;SDS011;39868;53.398;6.564;2022-10-16T11:59:52;9.13;;;2.25;;
53961;SDS011;39868;53.398;6.564;2022-10-16T12:05:38;7.20;;;2.30;;
53961;SDS011;39868;53.398;6.564;2022-10-16T12:08:18;4.05;;;2.20;;
53961;SDS011;39868;53.398;6.564;2022-10-16T12:10:46;6.85;;;2.60;;
53961;SDS011;39868;53.398;6.564;2022-10-16T12:18:40;6.32;;;2.40;;
53961;SDS011;39868;53.398;6.564;2022-10-16T12:21:13;5.22;;;2.20;;
53961;SDS011;39868;53.398;6.564;2022-10-16T12:23:49;3.90;;;2.30;;
53961;SDS011;39868;53.398;6.564;2022-10-16T12:26:28;5.57;;;2.13;;
53961;SDS011;39868;53.398;6.564;2022-10-16T12:31:50;7.55;;;2.50;;
53961;SDS011;39868;53.398;6.564;2022-10-16T12:34:36;3.72;;;2.30;;
53961;SDS011;39868;53.398;6.564;2022-10-16T12:37:15;10.10;;;2.88;;
53961;SDS011;39868;53.398;6.564;2022-10-16T12:39:48;5.38;;;2.50;;
53961;SDS011;39868;53.398;6.564;2022-10-16T12:42:22;8.80;;;2.80;;
53961;SDS011;39868;53.398;6.564;2022-10-16T12:44:53;6.53;;;2.22;;
53961;SDS011;39868;53.398;6.564;2022-10-16T12:47:23;6.40;;;2.40;;
53961;SDS011;39868;53.398;6.564;2022-10-16T12:49:51;5.15;;;2.60;;
53961;SDS011;39868;53.398;6.564;2022-10-16T12:52:28;5.80;;;2.28;;
53961;SDS011;39868;53.398;6.564;2022-10-16T12:55:04;6.72;;;2.30;;
53961;SDS011;39868;53.398;6.564;2022-10-16T13:00:24;4.95;;;2.30;;
53961;SDS011;39868;53.398;6.564;2022-10-16T13:06:08;6.28;;;2.20;;
53961;SDS011;39868;53.398;6.564;2022-10-16T13:08:59;5.93;;;2.33;;
53961;SDS011;39868;53.398;6.564;2022-10-16T13:12:05;9.70;;;3.08;;
53961;SDS011;39868;53.398;6.564;2022-10-16T13:15:11;4.90;;;2.40;;
53961;SDS011;39868;53.398;6.564;2022-10-16T13:26:38;3.53;;;1.63;;
53961;SDS011;39868;53.398;6.564;2022-10-16T13:29:30;3.70;;;2.00;;
53961;SDS011;39868;53.398;6.564;2022-10-16T13:32:07;4.78;;;1.45;;
53961;SDS011;39868;53.398;6.564;2022-10-16T13:34:45;6.13;;;1.67;;
53961;SDS011;39868;53.398;6.564;2022-10-16T13:37:18;8.15;;;1.88;;
53961;SDS011;39868;53.398;6.564;2022-10-16T13:40:02;3.60;;;1.70;;
53961;SDS011;39868;53.398;6.564;2022-10-16T13:43:02;5.57;;;1.48;;
53961;SDS011;39868;53.398;6.564;2022-10-16T13:45:32;5.15;;;1.73;;
53961;SDS011;39868;53.398;6.564;2022-10-16T13:48:09;7.32;;;1.77;;
53961;SDS011;39868;53.398;6.564;2022-10-16T13:50:42;4.78;;;1.70;;
53961;SDS011;39868;53.398;6.564;2022-10-16T13:53:13;2.28;;;1.42;;
53961;SDS011;39868;53.398;6.564;2022-10-16T13:55:47;6.20;;;1.58;;
53961;SDS011;39868;53.398;6.564;2022-10-16T13:58:20;4.82;;;1.60;;
53961;SDS011;39868;53.398;6.564;2022-10-16T14:01:00;3.08;;;1.52;;
53961;SDS011;39868;53.398;6.564;2022-10-16T14:03:38;8.02;;;1.67;;
53961;SDS011;39868;53.398;6.564;2022-10-16T14:06:22;4.65;;;1.73;;
53961;SDS011;39868;53.398;6.564;2022-10-16T14:08:59;8.45;;;2.08;;
53961;SDS011;39868;53.398;6.564;2022-10-16T14:11:46;6.93;;;2.13;;
53961;SDS011;39868;53.398;6.564;2022-10-16T14:14:26;4.50;;;1.80;;
53961;SDS011;39868;53.398;6.564;2022-10-16T14:19:54;4.32;;;1.90;;
53961;SDS011;39868;53.398;6.564;2022-10-16T14:22:40;3.75;;;1.73;;
53961;SDS011;39868;53.398;6.564;2022-10-16T14:30:52;4.05;;;1.70;;
53961;SDS011;39868;53.398;6.564;2022-10-16T14:38:43;5.32;;;1.92;;
53961;SDS011;39868;53.398;6.564;2022-10-16T14:41:21;4.57;;;1.60;;
53961;SDS011;39868;53.398;6.564;2022-10-16T14:43:56;6.35;;;2.13;;
53961;SDS011;39868;53.398;6.564;2022-10-16T14:46:31;7.43;;;1.95;;
53961;SDS011;39868;53.398;6.564;2022-10-16T14:51:47;7.28;;;1.88;;
53961;SDS011;39868;53.398;6.564;2022-10-16T14:54:22;4.03;;;2.20;;
53961;SDS011;39868;53.398;6.564;2022-10-16T14:56:58;6.20;;;1.92;;
53961;SDS011;39868;53.398;6.564;2022-10-16T14:59:35;5.65;;;2.30;;
53961;SDS011;39868;53.398;6.564;2022-10-16T15:05:20;1.95;;;1.45;;
53961;SDS011;39868;53.398;6.564;2022-10-16T15:07:48;7.60;;;1.80;;
53961;SDS011;39868;53.398;6.564;2022-10-16T15:10:17;6.57;;;1.85;;
53961;SDS011;39868;53.398;6.564;2022-10-16T15:12:45;6.30;;;1.98;;
53961;SDS011;39868;53.398;6.564;2022-10-16T15:18:13;4.30;;;2.00;;
53961;SDS011;39868;53.398;6.564;2022-10-16T15:20:49;3.17;;;2.13;;
53961;SDS011;39868;53.398;6.564;2022-10-16T15:23:21;3.38;;;2.00;;
53961;SDS011;39868;53.398;6.564;2022-10-16T15:25:55;5.30;;;1.70;;
53961;SDS011;39868;53.398;6.564;2022-10-16T15:28:25;3.30;;;1.98;;
53961;SDS011;39868;53.398;6.564;2022-10-16T15:30:56;4.35;;;2.17;;
53961;SDS011;39868;53.398;6.564;2022-10-16T15:33:34;4.32;;;1.90;;
53961;SDS011;39868;53.398;6.564;2022-10-16T15:36:13;3.88;;;2.03;;
53961;SDS011;39868;53.398;6.564;2022-10-16T15:38:46;4.28;;;2.20;;
53961;SDS011;39868;53.398;6.564;2022-10-16T15:41:18;3.30;;;1.90;;
53961;SDS011;39868;53.398;6.564;2022-10-16T15:43:48;6.72;;;2.60;;
53961;SDS011;39868;53.398;6.564;2022-10-16T15:46:29;6.88;;;1.88;;
53961;SDS011;39868;53.398;6.564;2022-10-16T15:49:00;5.28;;;2.17;;
53961;SDS011;39868;53.398;6.564;2022-10-16T15:51:30;4.22;;;2.20;;
53961;SDS011;39868;53.398;6.564;2022-10-16T15:54:00;4.38;;;2.72;;
53961;SDS011;39868;53.398;6.564;2022-10-16T15:56:28;4.70;;;2.00;;
53961;SDS011;39868;53.398;6.564;2022-10-16T15:59:00;4.43;;;2.13;;
53961;SDS011;39868;53.398;6.564;2022-10-16T16:01:31;4.32;;;1.80;;
53961;SDS011;39868;53.398;6.564;2022-10-16T16:04:00;2.85;;;1.90;;
53961;SDS011;39868;53.398;6.564;2022-10-16T16:06:41;4.47;;;2.28;;
53961;SDS011;39868;53.398;6.564;2022-10-16T16:09:12;6.10;;;2.33;;
53961;SDS011;39868;53.398;6.564;2022-10-16T16:11:40;6.30;;;2.42;;
53961;SDS011;39868;53.398;6.564;2022-10-16T16:14:12;6.80;;;2.50;;
53961;SDS011;39868;53.398;6.564;2022-10-16T16:16:41;5.25;;;2.40;;
53961;SDS011;39868;53.398;6.564;2022-10-16T16:19:13;3.75;;;2.10;;
53961;SDS011;39868;53.398;6.564;2022-10-16T16:21:47;8.80;;;2.67;;
53961;SDS011;39868;53.398;6.564;2022-10-16T16:24:18;3.00;;;1.80;;
53961;SDS011;39868;53.398;6.564;2022-10-16T16:26:47;4.47;;;2.13;;
53961;SDS011;39868;53.398;6.564;2022-10-16T16:29:17;5.13;;;2.88;;
53961;SDS011;39868;53.398;6.564;2022-10-16T16:31:50;3.75;;;2.55;;
53961;SDS011;39868;53.398;6.564;2022-10-16T16:34:24;8.32;;;2.65;;
53961;SDS011;39868;53.398;6.564;2022-10-16T16:36:53;5.00;;;2.10;;
53961;SDS011;39868;53.398;6.564;2022-10-16T16:39:22;2.85;;;2.20;;
53961;SDS011;39868;53.398;6.564;2022-10-16T16:41:50;7.43;;;2.35;;
53961;SDS011;39868;53.398;6.564;2022-10-16T16:44:18;3.63;;;2.58;;
53961;SDS011;39868;53.398;6.564;2022-10-16T16:46:46;5.05;;;2.47;;
53961;SDS011;39868;53.398;6.564;2022-10-16T16:49:14;5.70;;;2.65;;
53961;SDS011;39868;53.398;6.564;2022-10-16T16:51:42;4.00;;;2.38;;
53961;SDS011;39868;53.398;6.564;2022-10-16T16:54:10;3.20;;;2.13;;
53961;SDS011;39868;53.398;6.564;2022-10-16T16:56:41;5.32;;;2.25;;
53961;SDS011;39868;53.398;6.564;2022-10-16T16:59:15;7.65;;;2.33;;
53961;SDS011;39868;53.398;6.564;2022-10-16T17:01:47;3.25;;;2.33;;
53961;SDS011;39868;53.398;6.564;2022-10-16T17:04:22;4.68;;;2.33;;
53961;SDS011;39868;53.398;6.564;2022-10-16T17:06:50;5.13;;;2.25;;
53961;SDS011;39868;53.398;6.564;2022-10-16T17:09:22;4.50;;;2.53;;
53961;SDS011;39868;53.398;6.564;2022-10-16T17:11:50;3.25;;;2.20;;
53961;SDS011;39868;53.398;6.564;2022-10-16T17:14:17;6.40;;;2.70;;
53961;SDS011;39868;53.398;6.564;2022-10-16T17:16:45;6.85;;;2.67;;
53961;SDS011;39868;53.398;6.564;2022-10-16T17:19:17;4.30;;;2.17;;
53961;SDS011;39868;53.398;6.564;2022-10-16T17:21:49;2.72;;;2.38;;
53961;SDS011;39868;53.398;6.564;2022-10-16T17:24:18;2.85;;;2.20;;
53961;SDS011;39868;53.398;6.564;2022-10-16T17:26:49;5.53;;;2.53;;
53961;SDS011;39868;53.398;6.564;2022-10-16T17:29:16;4.60;;;2.00;;